sensor_id;sensor_type;location;lat;lon;timestamp;P1;durP1;ratioP1;P2;durP2;ratioP2
21987;SDS011;11158;53.404;-1.510;2024-02-26T00:03:59;11.23;;;5.43;;
21987;SDS011;11158;53.404;-1.510;2024-02-26T00:08:50;8.57;;;4.00;;
21987;SDS011;11158;53.404;-1.510;2024-02-26T00:13:40;6.43;;;3.43;;
21987;SDS011;11158;53.404;-1.510;2024-02-26T00:16:06;7.65;;;3.45;;
21987;SDS011;11158;53.404;-1.510;2024-02-26T00:18:32;6.75;;;4.03;;
21987;SDS011;11158;53.404;-1.510;2024-02-26T00:23:23;7.60;;;4.13;;
21987;SDS011;11158;53.404;-1.510;2024-02-26T00:28:14;6.90;;;2.57;;
21987;SDS011;11158;53.404;-1.510;2024-02-26T00:33:05;7.90;;;3.97;;
21987;SDS011;11158;53.404;-1.510;2024-02-26T00:35:30;9.88;;;3.45;;
21987;SDS011;11158;53.404;-1.510;2024-02-26T00:40:21;8.35;;;3.30;;
21987;SDS011;11158;53.404;-1.510;2024-02-26T00:45:13;13.90;;;4.55;;
21987;SDS011;11158;53.404;-1.510;2024-02-26T00:47:39;8.13;;;3.13;;
21987;SDS011;11158;53.404;-1.510;2024-02-26T00:50:06;10.63;;;4.22;;
21987;SDS011;11158;53.404;-1.510;2024-02-26T00:52:33;6.65;;;3.20;;
21987;SDS011;11158;53.404;-1.510;2024-02-26T00:54:59;7.88;;;3.10;;
21987;SDS011;11158;53.404;-1.510;2024-02-26T00:59:50;5.40;;;2.63;;
21987;SDS011;11158;53.404;-1.510;2024-02-26T01:02:15;7.70;;;2.72;;
21987;SDS011;11158;53.404;-1.510;2024-02-26T01:04:41;6.30;;;2.83;;
21987;SDS011;11158;53.404;-1.510;2024-02-26T01:07:06;9.85;;;3.70;;
21987;SDS011;11158;53.404;-1.510;2024-02-26T01:11:57;9.77;;;3.57;;
21987;SDS011;11158;53.404;-1.510;2024-02-26T01:16:48;5.63;;;2.08;;
21987;SDS011;11158;53.404;-1.510;2024-02-26T01:19:13;5.82;;;2.50;;
21987;SDS011;11158;53.404;-1.510;2024-02-26T01:21:40;6.90;;;2.70;;
21987;SDS011;11158;53.404;-1.510;2024-02-26T01:24:05;8.43;;;3.00;;
21987;SDS011;11158;53.404;-1.510;2024-02-26T01:26:32;10.73;;;2.60;;
21987;SDS011;11158;53.404;-1.510;2024-02-26T01:31:22;4.77;;;2.20;;
21987;SDS011;11158;53.404;-1.510;2024-02-26T01:36:13;9.53;;;2.80;;
21987;SDS011;11158;53.404;-1.510;2024-02-26T01:41:04;10.67;;;3.03;;
21987;SDS011;11158;53.404;-1.510;2024-02-26T01:45:55;9.30;;;2.20;;
21987;SDS011;11158;53.404;-1.510;2024-02-26T01:48:20;8.63;;;2.70;;
21987;SDS011;11158;53.404;-1.510;2024-02-26T01:53:11;6.13;;;1.90;;
21987;SDS011;11158;53.404;-1.510;2024-02-26T01:55:37;12.02;;;2.30;;
21987;SDS011;11158;53.404;-1.510;2024-02-26T01:58:03;4.97;;;1.67;;
21987;SDS011;11158;53.404;-1.510;2024-02-26T02:00:30;8.45;;;2.22;;
21987;SDS011;11158;53.404;-1.510;2024-02-26T02:05:21;10.20;;;2.13;;
21987;SDS011;11158;53.404;-1.510;2024-02-26T02:10:14;4.55;;;1.92;;
21987;SDS011;11158;53.404;-1.510;2024-02-26T02:12:40;1.15;;;0.73;;
21987;SDS011;11158;53.404;-1.510;2024-02-26T02:15:06;5.47;;;1.40;;
21987;SDS011;11158;53.404;-1.510;2024-02-26T02:17:32;5.68;;;1.60;;
21987;SDS011;11158;53.404;-1.510;2024-02-26T02:19:58;6.57;;;1.58;;
21987;SDS011;11158;53.404;-1.510;2024-02-26T02:22:23;6.03;;;1.48;;
21987;SDS011;11158;53.404;-1.510;2024-02-26T02:27:14;5.25;;;2.17;;
21987;SDS011;11158;53.404;-1.510;2024-02-26T02:29:40;8.75;;;2.00;;
21987;SDS011;11158;53.404;-1.510;2024-02-26T02:32:07;2.70;;;1.42;;
21987;SDS011;11158;53.404;-1.510;2024-02-26T02:34:33;4.20;;;1.25;;
21987;SDS011;11158;53.404;-1.510;2024-02-26T02:36:59;7.38;;;2.35;;
21987;SDS011;11158;53.404;-1.510;2024-02-26T02:39:24;1.23;;;0.85;;
21987;SDS011;11158;53.404;-1.510;2024-02-26T02:41:50;3.13;;;1.33;;
21987;SDS011;11158;53.404;-1.510;2024-02-26T02:44:15;7.82;;;2.10;;
21987;SDS011;11158;53.404;-1.510;2024-02-26T02:49:09;6.10;;;2.83;;
21987;SDS011;11158;53.404;-1.510;2024-02-26T02:51:37;4.85;;;2.00;;
21987;SDS011;11158;53.404;-1.510;2024-02-26T02:54:03;4.38;;;1.95;;
21987;SDS011;11158;53.404;-1.510;2024-02-26T02:56:29;5.32;;;1.67;;
21987;SDS011;11158;53.404;-1.510;2024-02-26T02:58:54;6.30;;;1.90;;
21987;SDS011;11158;53.404;-1.510;2024-02-26T03:01:20;10.02;;;2.20;;
21987;SDS011;11158;53.404;-1.510;2024-02-26T03:03:45;9.32;;;2.08;;
21987;SDS011;11158;53.404;-1.510;2024-02-26T03:06:10;8.65;;;1.73;;
21987;SDS011;11158;53.404;-1.510;2024-02-26T03:08:36;3.58;;;1.80;;
21987;SDS011;11158;53.404;-1.510;2024-02-26T03:11:04;8.82;;;2.15;;
21987;SDS011;11158;53.404;-1.510;2024-02-26T03:13:30;5.43;;;1.73;;
21987;SDS011;11158;53.404;-1.510;2024-02-26T03:15:55;8.38;;;1.65;;
21987;SDS011;11158;53.404;-1.510;2024-02-26T03:18:22;7.50;;;1.73;;
21987;SDS011;11158;53.404;-1.510;2024-02-26T03:23:12;8.40;;;1.43;;
21987;SDS011;11158;53.404;-1.510;2024-02-26T03:25:41;7.30;;;1.65;;
21987;SDS011;11158;53.404;-1.510;2024-02-26T03:28:07;6.82;;;1.60;;
21987;SDS011;11158;53.404;-1.510;2024-02-26T03:32:58;2.47;;;1.10;;
21987;SDS011;11158;53.404;-1.510;2024-02-26T03:37:49;8.47;;;2.30;;
21987;SDS011;11158;53.404;-1.510;2024-02-26T03:40:16;5.03;;;1.42;;
21987;SDS011;11158;53.404;-1.510;2024-02-26T03:42:43;2.78;;;0.85;;
21987;SDS011;11158;53.404;-1.510;2024-02-26T03:47:34;6.97;;;1.35;;
21987;SDS011;11158;53.404;-1.510;2024-02-26T03:52:25;6.18;;;1.30;;
21987;SDS011;11158;53.404;-1.510;2024-02-26T03:57:16;6.17;;;0.90;;
21987;SDS011;11158;53.404;-1.510;2024-02-26T03:59:41;5.30;;;1.10;;
21987;SDS011;11158;53.404;-1.510;2024-02-26T04:02:06;7.20;;;1.50;;
21987;SDS011;11158;53.404;-1.510;2024-02-26T04:07:00;1.60;;;1.33;;
21987;SDS011;11158;53.404;-1.510;2024-02-26T04:11:51;1.00;;;0.87;;
21987;SDS011;11158;53.404;-1.510;2024-02-26T04:14:16;9.18;;;1.23;;
21987;SDS011;11158;53.404;-1.510;2024-02-26T04:19:08;4.53;;;1.23;;
21987;SDS011;11158;53.404;-1.510;2024-02-26T04:21:34;3.78;;;1.15;;
21987;SDS011;11158;53.404;-1.510;2024-02-26T04:24:00;3.15;;;1.25;;
21987;SDS011;11158;53.404;-1.510;2024-02-26T04:26:27;2.80;;;0.85;;
21987;SDS011;11158;53.404;-1.510;2024-02-26T04:28:53;4.50;;;1.38;;
21987;SDS011;11158;53.404;-1.510;2024-02-26T04:33:44;3.03;;;1.07;;
21987;SDS011;11158;53.404;-1.510;2024-02-26T04:36:13;3.30;;;1.00;;
21987;SDS011;11158;53.404;-1.510;2024-02-26T04:38:45;3.47;;;1.13;;
21987;SDS011;11158;53.404;-1.510;2024-02-26T04:41:11;5.07;;;1.42;;
21987;SDS011;11158;53.404;-1.510;2024-02-26T04:43:37;3.75;;;1.05;;
21987;SDS011;11158;53.404;-1.510;2024-02-26T04:46:09;9.45;;;1.92;;
21987;SDS011;11158;53.404;-1.510;2024-02-26T04:48:34;4.20;;;1.27;;
21987;SDS011;11158;53.404;-1.510;2024-02-26T04:51:01;6.43;;;1.42;;
21987;SDS011;11158;53.404;-1.510;2024-02-26T04:53:26;10.02;;;1.83;;
21987;SDS011;11158;53.404;-1.510;2024-02-26T04:58:17;3.27;;;1.50;;
21987;SDS011;11158;53.404;-1.510;2024-02-26T05:00:43;4.60;;;0.98;;
21987;SDS011;11158;53.404;-1.510;2024-02-26T05:03:09;2.25;;;1.30;;
21987;SDS011;11158;53.404;-1.510;2024-02-26T05:05:38;5.88;;;1.95;;
21987;SDS011;11158;53.404;-1.510;2024-02-26T05:08:04;6.60;;;1.60;;
21987;SDS011;11158;53.404;-1.510;2024-02-26T05:12:55;2.07;;;0.90;;
21987;SDS011;11158;53.404;-1.510;2024-02-26T05:15:21;6.72;;;1.65;;
21987;SDS011;11158;53.404;-1.510;2024-02-26T05:17:46;5.90;;;1.58;;
21987;SDS011;11158;53.404;-1.510;2024-02-26T05:20:11;6.28;;;1.30;;
21987;SDS011;11158;53.404;-1.510;2024-02-26T05:22:37;6.82;;;1.48;;
21987;SDS011;11158;53.404;-1.510;2024-02-26T05:25:03;4.18;;;1.80;;
21987;SDS011;11158;53.404;-1.510;2024-02-26T05:27:29;1.15;;;0.77;;
21987;SDS011;11158;53.404;-1.510;2024-02-26T05:32:19;1.97;;;1.50;;
21987;SDS011;11158;53.404;-1.510;2024-02-26T05:34:45;4.95;;;1.90;;
21987;SDS011;11158;53.404;-1.510;2024-02-26T05:37:10;6.05;;;1.38;;
21987;SDS011;11158;53.404;-1.510;2024-02-26T05:39:36;5.22;;;1.60;;
21987;SDS011;11158;53.404;-1.510;2024-02-26T05:44:27;3.83;;;1.52;;
21987;SDS011;11158;53.404;-1.510;2024-02-26T05:46:52;3.35;;;1.90;;
21987;SDS011;11158;53.404;-1.510;2024-02-26T05:49:18;6.20;;;1.80;;
21987;SDS011;11158;53.404;-1.510;2024-02-26T05:51:43;6.45;;;2.35;;
21987;SDS011;11158;53.404;-1.510;2024-02-26T05:54:09;3.83;;;1.70;;
21987;SDS011;11158;53.404;-1.510;2024-02-26T05:56:35;7.28;;;2.10;;
21987;SDS011;11158;53.404;-1.510;2024-02-26T05:59:00;1.73;;;0.95;;
21987;SDS011;11158;53.404;-1.510;2024-02-26T06:01:26;7.63;;;2.35;;
21987;SDS011;11158;53.404;-1.510;2024-02-26T06:03:51;9.25;;;2.50;;
21987;SDS011;11158;53.404;-1.510;2024-02-26T06:06:17;6.90;;;2.42;;
21987;SDS011;11158;53.404;-1.510;2024-02-26T06:08:43;6.10;;;2.20;;
21987;SDS011;11158;53.404;-1.510;2024-02-26T06:11:08;5.82;;;2.40;;
21987;SDS011;11158;53.404;-1.510;2024-02-26T06:13:34;6.45;;;2.92;;
21987;SDS011;11158;53.404;-1.510;2024-02-26T06:16:00;5.78;;;2.08;;
21987;SDS011;11158;53.404;-1.510;2024-02-26T06:20:51;2.47;;;1.53;;
21987;SDS011;11158;53.404;-1.510;2024-02-26T06:25:42;4.70;;;2.00;;
21987;SDS011;11158;53.404;-1.510;2024-02-26T06:28:08;6.07;;;2.05;;
21987;SDS011;11158;53.404;-1.510;2024-02-26T06:30:33;2.22;;;1.60;;
21987;SDS011;11158;53.404;-1.510;2024-02-26T06:32:59;8.07;;;1.98;;
21987;SDS011;11158;53.404;-1.510;2024-02-26T06:35:25;2.95;;;1.40;;
21987;SDS011;11158;53.404;-1.510;2024-02-26T06:37:50;5.03;;;1.50;;
21987;SDS011;11158;53.404;-1.510;2024-02-26T06:40:18;2.70;;;1.55;;
21987;SDS011;11158;53.404;-1.510;2024-02-26T06:45:09;4.93;;;1.75;;
21987;SDS011;11158;53.404;-1.510;2024-02-26T06:47:35;4.75;;;1.55;;
21987;SDS011;11158;53.404;-1.510;2024-02-26T06:50:00;7.70;;;2.90;;
21987;SDS011;11158;53.404;-1.510;2024-02-26T06:52:26;4.13;;;2.88;;
21987;SDS011;11158;53.404;-1.510;2024-02-26T06:54:52;3.95;;;2.00;;
21987;SDS011;11158;53.404;-1.510;2024-02-26T06:57:21;11.57;;;3.53;;
21987;SDS011;11158;53.404;-1.510;2024-02-26T06:59:46;12.30;;;3.88;;
21987;SDS011;11158;53.404;-1.510;2024-02-26T07:04:38;5.00;;;2.75;;
21987;SDS011;11158;53.404;-1.510;2024-02-26T07:07:03;16.08;;;4.05;;
21987;SDS011;11158;53.404;-1.510;2024-02-26T07:09:29;7.45;;;3.13;;
21987;SDS011;11158;53.404;-1.510;2024-02-26T07:11:54;6.05;;;3.83;;
21987;SDS011;11158;53.404;-1.510;2024-02-26T07:16:45;9.48;;;4.05;;
21987;SDS011;11158;53.404;-1.510;2024-02-26T07:21:36;10.97;;;4.13;;
21987;SDS011;11158;53.404;-1.510;2024-02-26T07:26:27;9.85;;;3.47;;
21987;SDS011;11158;53.404;-1.510;2024-02-26T07:28:54;6.30;;;2.95;;
21987;SDS011;11158;53.404;-1.510;2024-02-26T07:33:45;4.95;;;2.60;;
21987;SDS011;11158;53.404;-1.510;2024-02-26T07:38:37;6.97;;;3.03;;
21987;SDS011;11158;53.404;-1.510;2024-02-26T07:43:27;4.93;;;1.53;;
21987;SDS011;11158;53.404;-1.510;2024-02-26T07:48:18;7.27;;;1.97;;
21987;SDS011;11158;53.404;-1.510;2024-02-26T07:53:09;4.00;;;1.47;;
21987;SDS011;11158;53.404;-1.510;2024-02-26T07:58:00;6.67;;;1.60;;
21987;SDS011;11158;53.404;-1.510;2024-02-26T08:00:25;4.10;;;1.98;;
21987;SDS011;11158;53.404;-1.510;2024-02-26T08:05:16;9.45;;;2.78;;
21987;SDS011;11158;53.404;-1.510;2024-02-26T08:10:07;8.27;;;1.80;;
21987;SDS011;11158;53.404;-1.510;2024-02-26T08:14:58;8.37;;;2.00;;
21987;SDS011;11158;53.404;-1.510;2024-02-26T08:17:25;5.50;;;2.05;;
21987;SDS011;11158;53.404;-1.510;2024-02-26T08:19:50;4.95;;;1.75;;
21987;SDS011;11158;53.404;-1.510;2024-02-26T08:24:42;6.80;;;1.88;;
21987;SDS011;11158;53.404;-1.510;2024-02-26T08:27:08;2.88;;;1.13;;
21987;SDS011;11158;53.404;-1.510;2024-02-26T08:31:59;6.47;;;3.57;;
21987;SDS011;11158;53.404;-1.510;2024-02-26T08:34:24;4.68;;;2.10;;
21987;SDS011;11158;53.404;-1.510;2024-02-26T08:36:50;9.77;;;1.75;;
21987;SDS011;11158;53.404;-1.510;2024-02-26T08:41:42;4.22;;;1.70;;
21987;SDS011;11158;53.404;-1.510;2024-02-26T08:46:33;2.63;;;1.33;;
21987;SDS011;11158;53.404;-1.510;2024-02-26T08:51:25;4.97;;;1.08;;
21987;SDS011;11158;53.404;-1.510;2024-02-26T08:56:16;5.28;;;1.10;;
21987;SDS011;11158;53.404;-1.510;2024-02-26T08:58:42;4.68;;;1.15;;
21987;SDS011;11158;53.404;-1.510;2024-02-26T09:01:08;2.90;;;1.23;;
21987;SDS011;11158;53.404;-1.510;2024-02-26T09:03:34;5.15;;;0.90;;
21987;SDS011;11158;53.404;-1.510;2024-02-26T09:08:25;6.07;;;1.40;;
21987;SDS011;11158;53.404;-1.510;2024-02-26T09:13:15;1.95;;;1.23;;
21987;SDS011;11158;53.404;-1.510;2024-02-26T09:18:06;4.00;;;0.63;;
21987;SDS011;11158;53.404;-1.510;2024-02-26T09:20:32;7.05;;;1.42;;
21987;SDS011;11158;53.404;-1.510;2024-02-26T09:22:57;5.35;;;0.90;;
21987;SDS011;11158;53.404;-1.510;2024-02-26T09:25:22;6.72;;;1.55;;
21987;SDS011;11158;53.404;-1.510;2024-02-26T09:30:13;5.93;;;1.10;;
21987;SDS011;11158;53.404;-1.510;2024-02-26T09:35:05;2.10;;;0.90;;
21987;SDS011;11158;53.404;-1.510;2024-02-26T09:37:31;2.85;;;0.90;;
21987;SDS011;11158;53.404;-1.510;2024-02-26T09:39:58;2.95;;;1.13;;
21987;SDS011;11158;53.404;-1.510;2024-02-26T09:44:51;1.60;;;0.55;;
21987;SDS011;11158;53.404;-1.510;2024-02-26T09:47:19;3.08;;;0.82;;
21987;SDS011;11158;53.404;-1.510;2024-02-26T09:49:46;1.02;;;0.63;;
21987;SDS011;11158;53.404;-1.510;2024-02-26T09:52:13;3.35;;;0.80;;
21987;SDS011;11158;53.404;-1.510;2024-02-26T09:54:40;3.88;;;0.45;;
21987;SDS011;11158;53.404;-1.510;2024-02-26T09:57:06;2.38;;;0.60;;
21987;SDS011;11158;53.404;-1.510;2024-02-26T09:59:40;1.40;;;0.50;;
21987;SDS011;11158;53.404;-1.510;2024-02-26T10:02:13;2.38;;;0.50;;
21987;SDS011;11158;53.404;-1.510;2024-02-26T10:04:39;2.80;;;0.73;;
21987;SDS011;11158;53.404;-1.510;2024-02-26T10:07:12;1.60;;;0.77;;
21987;SDS011;11158;53.404;-1.510;2024-02-26T10:09:38;4.75;;;0.60;;
21987;SDS011;11158;53.404;-1.510;2024-02-26T10:12:04;1.55;;;0.50;;
21987;SDS011;11158;53.404;-1.510;2024-02-26T10:14:30;1.30;;;0.60;;
21987;SDS011;11158;53.404;-1.510;2024-02-26T10:16:56;1.42;;;0.57;;
21987;SDS011;11158;53.404;-1.510;2024-02-26T10:21:58;1.88;;;0.50;;
21987;SDS011;11158;53.404;-1.510;2024-02-26T10:24:25;4.57;;;0.70;;
21987;SDS011;11158;53.404;-1.510;2024-02-26T10:26:54;4.25;;;0.40;;
21987;SDS011;11158;53.404;-1.510;2024-02-26T10:29:21;3.83;;;0.30;;
21987;SDS011;11158;53.404;-1.510;2024-02-26T10:31:48;3.53;;;0.40;;
21987;SDS011;11158;53.404;-1.510;2024-02-26T10:34:17;3.60;;;0.50;;
21987;SDS011;11158;53.404;-1.510;2024-02-26T10:36:42;2.08;;;0.50;;
21987;SDS011;11158;53.404;-1.510;2024-02-26T10:39:09;0.82;;;0.20;;
21987;SDS011;11158;53.404;-1.510;2024-02-26T10:41:36;2.40;;;0.50;;
21987;SDS011;11158;53.404;-1.510;2024-02-26T10:44:02;2.15;;;0.65;;
21987;SDS011;11158;53.404;-1.510;2024-02-26T10:46:28;2.65;;;0.60;;
21987;SDS011;11158;53.404;-1.510;2024-02-26T10:48:53;19.83;;;0.85;;
21987;SDS011;11158;53.404;-1.510;2024-02-26T10:51:22;4.70;;;0.90;;
21987;SDS011;11158;53.404;-1.510;2024-02-26T10:53:52;3.92;;;0.70;;
21987;SDS011;11158;53.404;-1.510;2024-02-26T10:56:21;2.03;;;0.55;;
21987;SDS011;11158;53.404;-1.510;2024-02-26T10:58:50;6.40;;;0.77;;
21987;SDS011;11158;53.404;-1.510;2024-02-26T11:01:16;6.05;;;0.75;;
21987;SDS011;11158;53.404;-1.510;2024-02-26T11:03:44;8.10;;;1.48;;
21987;SDS011;11158;53.404;-1.510;2024-02-26T11:08:36;2.13;;;0.50;;
21987;SDS011;11158;53.404;-1.510;2024-02-26T11:11:03;3.45;;;0.73;;
21987;SDS011;11158;53.404;-1.510;2024-02-26T11:13:30;7.97;;;1.23;;
21987;SDS011;11158;53.404;-1.510;2024-02-26T11:15:56;1.55;;;0.80;;
21987;SDS011;11158;53.404;-1.510;2024-02-26T11:20:49;11.50;;;1.30;;
21987;SDS011;11158;53.404;-1.510;2024-02-26T11:23:16;3.63;;;0.43;;
21987;SDS011;11158;53.404;-1.510;2024-02-26T11:25:41;5.63;;;0.60;;
21987;SDS011;11158;53.404;-1.510;2024-02-26T11:30:36;2.85;;;0.60;;
21987;SDS011;11158;53.404;-1.510;2024-02-26T11:33:08;4.20;;;0.70;;
21987;SDS011;11158;53.404;-1.510;2024-02-26T11:35:36;2.58;;;0.65;;
21987;SDS011;11158;53.404;-1.510;2024-02-26T11:38:01;1.38;;;0.50;;
21987;SDS011;11158;53.404;-1.510;2024-02-26T11:40:28;7.82;;;0.93;;
21987;SDS011;11158;53.404;-1.510;2024-02-26T11:42:56;2.10;;;0.40;;
21987;SDS011;11158;53.404;-1.510;2024-02-26T11:45:47;2.60;;;0.60;;
21987;SDS011;11158;53.404;-1.510;2024-02-26T11:48:15;3.28;;;0.60;;
21987;SDS011;11158;53.404;-1.510;2024-02-26T11:50:45;3.13;;;0.28;;
21987;SDS011;11158;53.404;-1.510;2024-02-26T11:53:22;1.30;;;0.45;;
21987;SDS011;11158;53.404;-1.510;2024-02-26T11:58:42;3.53;;;0.40;;
21987;SDS011;11158;53.404;-1.510;2024-02-26T12:04:02;3.80;;;0.55;;
21987;SDS011;11158;53.404;-1.510;2024-02-26T12:06:29;4.88;;;0.70;;
21987;SDS011;11158;53.404;-1.510;2024-02-26T12:08:55;4.43;;;0.60;;
21987;SDS011;11158;53.404;-1.510;2024-02-26T12:11:21;3.33;;;1.10;;
21987;SDS011;11158;53.404;-1.510;2024-02-26T12:13:47;4.22;;;0.95;;
21987;SDS011;11158;53.404;-1.510;2024-02-26T12:16:34;2.47;;;0.60;;
21987;SDS011;11158;53.404;-1.510;2024-02-26T12:19:07;1.65;;;1.10;;
21987;SDS011;11158;53.404;-1.510;2024-02-26T12:21:34;1.92;;;0.40;;
21987;SDS011;11158;53.404;-1.510;2024-02-26T12:24:13;1.30;;;0.35;;
21987;SDS011;11158;53.404;-1.510;2024-02-26T12:26:40;1.27;;;0.38;;
21987;SDS011;11158;53.404;-1.510;2024-02-26T12:29:06;6.38;;;0.60;;
21987;SDS011;11158;53.404;-1.510;2024-02-26T12:31:32;1.00;;;0.20;;
21987;SDS011;11158;53.404;-1.510;2024-02-26T12:36:27;3.50;;;0.50;;
21987;SDS011;11158;53.404;-1.510;2024-02-26T12:38:52;1.17;;;0.25;;
21987;SDS011;11158;53.404;-1.510;2024-02-26T12:41:18;1.75;;;0.20;;
21987;SDS011;11158;53.404;-1.510;2024-02-26T12:43:43;5.38;;;0.65;;
21987;SDS011;11158;53.404;-1.510;2024-02-26T12:46:09;8.40;;;0.60;;
21987;SDS011;11158;53.404;-1.510;2024-02-26T12:48:36;0.40;;;0.22;;
21987;SDS011;11158;53.404;-1.510;2024-02-26T12:51:01;3.95;;;0.95;;
21987;SDS011;11158;53.404;-1.510;2024-02-26T12:53:27;2.78;;;0.50;;
21987;SDS011;11158;53.404;-1.510;2024-02-26T12:55:55;3.70;;;0.52;;
21987;SDS011;11158;53.404;-1.510;2024-02-26T12:58:21;4.47;;;0.60;;
21987;SDS011;11158;53.404;-1.510;2024-02-26T13:00:50;3.35;;;0.50;;
21987;SDS011;11158;53.404;-1.510;2024-02-26T13:03:17;4.72;;;0.40;;
21987;SDS011;11158;53.404;-1.510;2024-02-26T13:08:09;1.35;;;0.20;;
21987;SDS011;11158;53.404;-1.510;2024-02-26T13:10:42;1.55;;;0.30;;
21987;SDS011;11158;53.404;-1.510;2024-02-26T13:13:07;1.02;;;0.30;;
21987;SDS011;11158;53.404;-1.510;2024-02-26T13:15:33;1.52;;;0.55;;
21987;SDS011;11158;53.404;-1.510;2024-02-26T13:20:35;0.60;;;0.25;;
21987;SDS011;11158;53.404;-1.510;2024-02-26T13:23:02;0.68;;;0.10;;
21987;SDS011;11158;53.404;-1.510;2024-02-26T13:25:32;2.13;;;0.30;;
21987;SDS011;11158;53.404;-1.510;2024-02-26T13:28:06;3.78;;;0.30;;
21987;SDS011;11158;53.404;-1.510;2024-02-26T13:30:33;1.00;;;0.32;;
21987;SDS011;11158;53.404;-1.510;2024-02-26T13:33:06;0.57;;;0.30;;
21987;SDS011;11158;53.404;-1.510;2024-02-26T13:35:41;2.13;;;0.40;;
21987;SDS011;11158;53.404;-1.510;2024-02-26T13:40:32;1.10;;;0.30;;
21987;SDS011;11158;53.404;-1.510;2024-02-26T13:42:58;4.90;;;0.30;;
21987;SDS011;11158;53.404;-1.510;2024-02-26T13:45:24;2.05;;;0.20;;
21987;SDS011;11158;53.404;-1.510;2024-02-26T13:47:49;1.02;;;0.20;;
21987;SDS011;11158;53.404;-1.510;2024-02-26T13:50:15;4.50;;;1.00;;
21987;SDS011;11158;53.404;-1.510;2024-02-26T13:52:40;1.15;;;0.38;;
21987;SDS011;11158;53.404;-1.510;2024-02-26T13:57:32;7.18;;;0.93;;
21987;SDS011;11158;53.404;-1.510;2024-02-26T13:59:58;0.95;;;0.25;;
21987;SDS011;11158;53.404;-1.510;2024-02-26T14:02:23;4.28;;;0.80;;
21987;SDS011;11158;53.404;-1.510;2024-02-26T14:07:14;3.30;;;0.80;;
21987;SDS011;11158;53.404;-1.510;2024-02-26T14:09:42;5.72;;;0.80;;
21987;SDS011;11158;53.404;-1.510;2024-02-26T14:12:07;4.10;;;0.85;;
21987;SDS011;11158;53.404;-1.510;2024-02-26T14:14:33;1.02;;;0.30;;
21987;SDS011;11158;53.404;-1.510;2024-02-26T14:17:01;2.38;;;0.40;;
21987;SDS011;11158;53.404;-1.510;2024-02-26T14:19:28;6.90;;;0.68;;
21987;SDS011;11158;53.404;-1.510;2024-02-26T14:21:54;2.00;;;0.30;;
21987;SDS011;11158;53.404;-1.510;2024-02-26T14:24:19;1.27;;;0.17;;
21987;SDS011;11158;53.404;-1.510;2024-02-26T14:26:44;4.55;;;0.50;;
21987;SDS011;11158;53.404;-1.510;2024-02-26T14:29:10;1.88;;;0.77;;
21987;SDS011;11158;53.404;-1.510;2024-02-26T14:31:36;2.95;;;0.47;;
21987;SDS011;11158;53.404;-1.510;2024-02-26T14:34:01;3.15;;;0.30;;
21987;SDS011;11158;53.404;-1.510;2024-02-26T14:36:27;3.80;;;0.50;;
21987;SDS011;11158;53.404;-1.510;2024-02-26T14:38:52;1.50;;;0.30;;
21987;SDS011;11158;53.404;-1.510;2024-02-26T14:41:18;0.82;;;0.30;;
21987;SDS011;11158;53.404;-1.510;2024-02-26T14:43:45;4.30;;;0.45;;
21987;SDS011;11158;53.404;-1.510;2024-02-26T14:46:10;2.72;;;0.30;;
21987;SDS011;11158;53.404;-1.510;2024-02-26T14:48:35;4.88;;;0.40;;
21987;SDS011;11158;53.404;-1.510;2024-02-26T14:51:01;2.65;;;0.50;;
21987;SDS011;11158;53.404;-1.510;2024-02-26T14:53:26;4.70;;;1.00;;
21987;SDS011;11158;53.404;-1.510;2024-02-26T14:55:52;4.70;;;0.80;;
21987;SDS011;11158;53.404;-1.510;2024-02-26T15:00:48;0.40;;;0.30;;
21987;SDS011;11158;53.404;-1.510;2024-02-26T15:03:14;2.50;;;0.43;;
21987;SDS011;11158;53.404;-1.510;2024-02-26T15:05:40;1.60;;;0.40;;
21987;SDS011;11158;53.404;-1.510;2024-02-26T15:08:05;2.20;;;0.28;;
21987;SDS011;11158;53.404;-1.510;2024-02-26T15:10:34;1.83;;;0.60;;
21987;SDS011;11158;53.404;-1.510;2024-02-26T15:12:59;3.38;;;0.45;;
21987;SDS011;11158;53.404;-1.510;2024-02-26T15:15:24;1.60;;;0.45;;
21987;SDS011;11158;53.404;-1.510;2024-02-26T15:17:50;2.60;;;0.77;;
21987;SDS011;11158;53.404;-1.510;2024-02-26T15:20:16;2.25;;;0.82;;
21987;SDS011;11158;53.404;-1.510;2024-02-26T15:22:42;2.13;;;0.50;;
21987;SDS011;11158;53.404;-1.510;2024-02-26T15:25:07;4.30;;;0.90;;
21987;SDS011;11158;53.404;-1.510;2024-02-26T15:27:33;1.73;;;0.35;;
21987;SDS011;11158;53.404;-1.510;2024-02-26T15:30:00;1.67;;;0.40;;
21987;SDS011;11158;53.404;-1.510;2024-02-26T15:32:26;3.85;;;0.50;;
21987;SDS011;11158;53.404;-1.510;2024-02-26T15:34:52;4.70;;;0.85;;
21987;SDS011;11158;53.404;-1.510;2024-02-26T15:37:19;0.77;;;0.40;;
21987;SDS011;11158;53.404;-1.510;2024-02-26T15:39:44;1.55;;;0.57;;
21987;SDS011;11158;53.404;-1.510;2024-02-26T15:42:10;3.85;;;1.00;;
21987;SDS011;11158;53.404;-1.510;2024-02-26T15:44:37;1.50;;;0.80;;
21987;SDS011;11158;53.404;-1.510;2024-02-26T15:47:03;4.22;;;0.98;;
21987;SDS011;11158;53.404;-1.510;2024-02-26T15:49:28;1.10;;;0.50;;
21987;SDS011;11158;53.404;-1.510;2024-02-26T15:51:54;4.55;;;1.00;;
21987;SDS011;11158;53.404;-1.510;2024-02-26T15:54:20;4.50;;;0.65;;
21987;SDS011;11158;53.404;-1.510;2024-02-26T15:56:49;3.25;;;0.60;;
21987;SDS011;11158;53.404;-1.510;2024-02-26T15:59:15;1.25;;;0.50;;
21987;SDS011;11158;53.404;-1.510;2024-02-26T16:01:40;2.05;;;0.30;;
21987;SDS011;11158;53.404;-1.510;2024-02-26T16:04:06;1.52;;;0.60;;
21987;SDS011;11158;53.404;-1.510;2024-02-26T16:06:33;1.20;;;0.73;;
21987;SDS011;11158;53.404;-1.510;2024-02-26T16:09:03;1.48;;;0.70;;
21987;SDS011;11158;53.404;-1.510;2024-02-26T16:11:29;1.23;;;0.40;;
21987;SDS011;11158;53.404;-1.510;2024-02-26T16:14:08;1.30;;;0.47;;
21987;SDS011;11158;53.404;-1.510;2024-02-26T16:16:44;5.22;;;0.70;;
21987;SDS011;11158;53.404;-1.510;2024-02-26T16:19:17;3.75;;;0.80;;
21987;SDS011;11158;53.404;-1.510;2024-02-26T16:21:43;1.63;;;0.77;;
21987;SDS011;11158;53.404;-1.510;2024-02-26T16:24:08;3.65;;;0.82;;
21987;SDS011;11158;53.404;-1.510;2024-02-26T16:26:34;1.98;;;0.57;;
21987;SDS011;11158;53.404;-1.510;2024-02-26T16:28:59;3.20;;;0.80;;
21987;SDS011;11158;53.404;-1.510;2024-02-26T16:31:25;4.30;;;0.60;;
21987;SDS011;11158;53.404;-1.510;2024-02-26T16:33:50;2.25;;;0.52;;
21987;SDS011;11158;53.404;-1.510;2024-02-26T16:36:16;2.95;;;1.00;;
21987;SDS011;11158;53.404;-1.510;2024-02-26T16:38:42;0.98;;;0.40;;
21987;SDS011;11158;53.404;-1.510;2024-02-26T16:41:07;4.30;;;0.70;;
21987;SDS011;11158;53.404;-1.510;2024-02-26T16:43:33;3.53;;;0.57;;
21987;SDS011;11158;53.404;-1.510;2024-02-26T16:46:00;7.18;;;1.05;;
21987;SDS011;11158;53.404;-1.510;2024-02-26T16:48:26;1.90;;;0.60;;
21987;SDS011;11158;53.404;-1.510;2024-02-26T16:53:18;1.73;;;0.55;;
21987;SDS011;11158;53.404;-1.510;2024-02-26T16:55:43;5.00;;;0.82;;
21987;SDS011;11158;53.404;-1.510;2024-02-26T16:58:09;2.88;;;0.60;;
21987;SDS011;11158;53.404;-1.510;2024-02-26T17:03:00;4.22;;;0.82;;
21987;SDS011;11158;53.404;-1.510;2024-02-26T17:07:51;4.78;;;0.60;;
21987;SDS011;11158;53.404;-1.510;2024-02-26T17:10:17;4.38;;;0.60;;
21987;SDS011;11158;53.404;-1.510;2024-02-26T17:12:43;3.03;;;0.63;;
21987;SDS011;11158;53.404;-1.510;2024-02-26T17:15:10;3.35;;;0.70;;
21987;SDS011;11158;53.404;-1.510;2024-02-26T17:17:35;6.13;;;0.70;;
21987;SDS011;11158;53.404;-1.510;2024-02-26T17:20:01;2.90;;;0.70;;
21987;SDS011;11158;53.404;-1.510;2024-02-26T17:22:29;6.35;;;1.05;;
21987;SDS011;11158;53.404;-1.510;2024-02-26T17:24:54;6.95;;;1.05;;
21987;SDS011;11158;53.404;-1.510;2024-02-26T17:27:20;4.00;;;1.02;;
21987;SDS011;11158;53.404;-1.510;2024-02-26T17:32:10;4.30;;;0.97;;
21987;SDS011;11158;53.404;-1.510;2024-02-26T17:37:01;3.90;;;1.17;;
21987;SDS011;11158;53.404;-1.510;2024-02-26T17:41:52;9.13;;;0.70;;
21987;SDS011;11158;53.404;-1.510;2024-02-26T17:44:17;4.93;;;1.60;;
21987;SDS011;11158;53.404;-1.510;2024-02-26T17:49:08;4.00;;;1.08;;